weather.gov     
National Weather Service

Terminal Aerodrome Forecast
NWS Homepage
This page is being discontinued on March 12, 2014.
The same data is available at this site. Please update your bookmarks.
Thank you, and we apologize for the inconvenience.
Please send an email to SR-SRH.Webmaster@noaa.gov with any concerns.


Current Version
Previous Version:    01  02  03  04  05  06  07  08  09  10  11  12  13  14  15  16  17  18  19  20  21  22  23  24  25  26  27  28  29  30  
   31  32  33  
[Printable]
213
FTAK31 PAJN 292300
TAFAYA
TAF
PAYA 292340Z 3000/3024 16006KT P6SM VCSH SCT030 BKN040 BKN100
     FM300600 VRB04KT P6SM -SHRA BKN025 OVC050
     FM300900 VRB03KT P6SM -SHRA SCT015 OVC025
     FM301800 11005KT P6SM VCSH SCT015 SCT025 OVC050
     FM302100 VRB04KT P6SM BKN050
      AMD LTD TO CLD VIS AND WIND 3001/3010=


U.S. Dept. of Commerce
NOAA National Weather Service
1325 East West Highway
Silver Spring, MD 20910
E-mail: w-nws.webmaster@noaa.gov
Page last modified: May 16, 2007
NATIONAL WEATHER SERVICE: for Safety, for Work, for Fun - FOR LIFE